Time;durP1;ratioP1;P1;durP2;ratioP2;P2;SDS_P1;SDS_P2;PMS_P1;PMS_P2;Temp;Humidity;BMP_temperature;BMP_pressure;BME280_temperature;BME280_humidity;BME280_pressure;Samples;Min_cycle;Max_cycle;Signal;HPM_P1;HPM_P2
2022/11/19 00:01:12;;;;;;;31.90;15.35;;;0.00;99.90;;;;;;5100814;28;20312;-74
2022/11/19 00:03:41;;;;;;;32.78;14.93;;;0.00;99.90;;;;;;5100611;28;20023;-74
2022/11/19 00:06:14;;;;;;;30.05;15.32;;;0.00;99.90;;;;;;5100415;28;20043;-74
2022/11/19 00:08:42;;;;;;;32.83;14.23;;;0.00;99.90;;;;;;5100360;28;20024;-74
2022/11/19 00:11:11;;;;;;;28.23;14.35;;;0.00;99.90;;;;;;5082350;28;20078;-74
2022/11/19 00:13:40;;;;;;;28.90;15.45;;;0.00;99.90;;;;;;5101005;28;20066;-74
2022/11/19 00:16:13;;;;;;;31.38;14.60;;;0.00;99.90;;;;;;5100174;28;20024;-74
2022/11/19 00:18:41;;;;;;;26.90;13.52;;;0.00;99.90;;;;;;5100433;28;20032;-74
2022/11/19 00:21:10;;;;;;;29.83;14.20;;;0.00;99.90;;;;;;5100109;28;20099;-74
2022/11/19 00:23:39;;;;;;;28.38;14.10;;;0.00;99.90;;;;;;5100284;28;20020;-74
2022/11/19 00:26:11;;;;;;;29.23;13.40;;;0.00;99.90;;;;;;5100026;28;20016;-74
2022/11/19 00:28:40;;;;;;;41.25;14.88;;;0.00;99.90;;;;;;5100053;28;20025;-74
2022/11/19 00:31:09;;;;;;;28.85;13.98;;;0.00;99.90;;;;;;5099951;28;20436;-74
2022/11/19 00:33:38;;;;;;;26.30;12.32;;;0.00;99.90;;;;;;5100044;28;20066;-74
2022/11/19 00:36:08;;;;;;;27.50;13.10;;;0.00;99.90;;;;;;5099740;28;20070;-74
2022/11/19 00:38:37;;;;;;;30.23;13.02;;;0.00;99.90;;;;;;5100689;28;20024;-74
2022/11/19 00:41:05;;;;;;;29.63;13.65;;;0.00;99.90;;;;;;5099752;28;20013;-74
2022/11/19 00:43:48;;;;;;;25.85;13.13;;;0.00;99.90;;;;;;5100216;28;20016;-74
2022/11/19 00:46:23;;;;;;;26.23;12.60;;;0.00;99.90;;;;;;5081911;28;20390;-74
2022/11/19 00:48:52;;;;;;;25.33;11.80;;;-0.10;99.90;;;;;;5081331;28;20093;-74
2022/11/19 00:51:21;;;;;;;29.23;14.10;;;-0.10;99.90;;;;;;5099548;28;20358;-74
2022/11/19 00:53:48;;;;;;;28.98;13.05;;;-0.10;99.90;;;;;;5100040;28;20089;-74
2022/11/19 00:56:25;;;;;;;25.23;12.52;;;-0.10;99.90;;;;;;5099397;28;20032;-74
2022/11/19 00:58:53;;;;;;;28.98;12.98;;;-0.10;99.90;;;;;;5081454;28;20023;-74
2022/11/19 01:01:22;;;;;;;27.60;12.88;;;-0.10;99.90;;;;;;5099633;28;20404;-74
2022/11/19 01:03:49;;;;;;;26.80;12.15;;;-0.10;99.90;;;;;;5099367;28;20020;-74
2022/11/19 01:06:19;;;;;;;22.67;12.05;;;-0.10;99.90;;;;;;5099294;28;20020;-74
2022/11/19 01:08:51;;;;;;;24.60;11.80;;;-0.20;99.90;;;;;;5099550;28;20032;-74
2022/11/19 01:11:28;;;;;;;27.13;11.85;;;-0.20;99.90;;;;;;5099196;28;20358;-74
2022/11/19 01:13:56;;;;;;;24.80;11.93;;;-0.20;99.90;;;;;;5099813;28;20020;-74
2022/11/19 01:16:29;;;;;;;23.52;11.90;;;-0.20;99.90;;;;;;5081049;28;20028;-74
2022/11/19 01:18:57;;;;;;;24.48;11.88;;;-0.20;99.90;;;;;;5098994;28;20431;-74
2022/11/19 01:21:28;;;;;;;23.70;12.55;;;-0.20;99.90;;;;;;5081310;28;20320;-74
2022/11/19 01:23:56;;;;;;;22.33;11.57;;;-0.20;99.90;;;;;;5099114;28;20016;-74
2022/11/19 01:26:25;;;;;;;21.52;11.15;;;-0.20;99.90;;;;;;5099128;28;20081;-74
2022/11/19 01:28:52;;;;;;;27.02;11.38;;;-0.20;99.90;;;;;;5098873;28;20020;-74
2022/11/19 01:31:24;;;;;;;26.35;12.48;;;-0.20;99.90;;;;;;5080907;28;20431;-74
2022/11/19 01:33:52;;;;;;;26.50;13.63;;;-0.20;99.90;;;;;;5081115;28;20327;-74
2022/11/19 01:36:22;;;;;;;23.70;11.70;;;-0.20;99.90;;;;;;5080195;28;20031;-74
2022/11/19 01:38:50;;;;;;;26.23;11.35;;;-0.20;99.90;;;;;;5098683;28;20312;-74
2022/11/19 01:41:26;;;;;;;22.27;11.23;;;-0.30;99.90;;;;;;5098611;28;20026;-74
2022/11/19 01:43:58;;;;;;;23.27;10.23;;;-0.30;99.90;;;;;;5098710;28;20024;-74
2022/11/19 01:46:28;;;;;;;24.48;11.43;;;-0.30;99.90;;;;;;5098488;28;20036;-74
2022/11/19 01:49:02;;;;;;;23.52;10.85;;;-0.30;99.90;;;;;;5098312;28;20017;-74
2022/11/19 01:51:41;;;;;;;24.20;11.30;;;-0.40;99.90;;;;;;5098706;28;20415;-74
2022/11/19 01:54:23;;;;;;;25.85;12.00;;;-0.30;99.90;;;;;;5098623;28;20036;-74
2022/11/19 01:56:50;;;;;;;23.98;11.38;;;-0.40;99.90;;;;;;5098297;28;20027;-74
2022/11/19 01:59:18;;;;;;;28.10;12.02;;;-0.30;99.90;;;;;;5080314;28;20021;-74
2022/11/19 02:01:46;;;;;;;23.98;11.05;;;-0.30;99.90;;;;;;5098695;28;20017;-74
2022/11/19 02:04:15;;;;;;;25.48;10.80;;;-0.30;99.90;;;;;;5098048;28;20016;-74
2022/11/19 02:06:45;;;;;;;28.58;12.77;;;-0.30;99.90;;;;;;5098153;28;20028;-74
2022/11/19 02:09:13;;;;;;;24.58;10.95;;;-0.30;99.90;;;;;;5099120;28;20403;-74
2022/11/19 02:12:23;;;;;;;26.75;12.15;;;-0.30;99.90;;;;;;5098221;28;20032;-74
2022/11/19 02:15:02;;;;;;;24.10;10.93;;;-0.30;99.90;;;;;;5079431;28;20073;-74
2022/11/19 02:18:17;;;;;;;23.45;11.38;;;-0.30;99.90;;;;;;5079857;28;20024;-74
2022/11/19 02:20:53;;;;;;;26.17;11.48;;;-0.40;99.90;;;;;;5097833;28;20023;-74
2022/11/19 02:23:37;;;;;;;24.83;12.13;;;-0.40;99.90;;;;;;5098259;28;20043;-74
2022/11/19 02:26:20;;;;;;;23.55;10.35;;;-0.30;99.90;;;;;;5097697;28;20031;-73
2022/11/19 02:28:52;;;;;;;24.60;11.90;;;-0.40;99.90;;;;;;5097982;28;20309;-74
2022/11/19 02:31:43;;;;;;;23.55;11.80;;;-0.40;99.90;;;;;;5098153;28;20020;-74
2022/11/19 02:34:14;;;;;;;31.00;13.20;;;-0.40;99.90;;;;;;5097498;28;20023;-74
2022/11/19 02:36:58;;;;;;;25.13;12.18;;;-0.50;99.90;;;;;;5079501;28;20054;-74
2022/11/19 02:39:40;;;;;;;23.20;12.00;;;-0.50;99.90;;;;;;5098028;28;20023;-74
2022/11/19 02:42:13;;;;;;;24.58;10.90;;;-0.50;99.90;;;;;;5097618;28;20054;-74
2022/11/19 02:44:58;;;;;;;21.67;10.68;;;-0.50;99.90;;;;;;5079386;28;20031;-74
2022/11/19 02:47:39;;;;;;;22.08;10.43;;;-0.50;99.90;;;;;;5097557;28;20056;-74
2022/11/19 02:50:19;;;;;;;24.90;11.75;;;-0.50;99.90;;;;;;5097316;28;20320;-74
2022/11/19 02:52:47;;;;;;;21.45;10.45;;;-0.60;99.90;;;;;;5097476;28;20020;-74
2022/11/19 02:55:19;;;;;;;23.65;12.25;;;-0.70;99.90;;;;;;5096349;28;20083;-74
2022/11/19 03:04:28;;;;;;;22.73;11.45;;;-0.80;99.90;;;;;;5079282;28;20415;-74
2022/11/19 03:06:31;;;;;;;24.20;10.38;;;-1.10;99.90;;;;;;5097193;28;20490;-74
2022/11/19 03:08:59;;;;;;;22.00;10.82;;;-1.20;99.90;;;;;;5097583;28;20027;-74
2022/11/19 03:11:28;;;;;;;24.65;11.68;;;-1.30;99.90;;;;;;5096988;28;20031;-74
2022/11/19 03:17:27;;;;;;;25.80;11.20;;;-1.40;99.90;;;;;;5090926;28;20034;-74
2022/11/19 03:20:20;;;;;;;24.73;11.50;;;-1.50;99.90;;;;;;5096844;28;20073;-74
2022/11/19 03:22:55;;;;;;;26.42;12.30;;;-1.60;99.90;;;;;;5096854;28;20016;-74
2022/11/19 03:25:49;;;;;;;25.17;11.35;;;-1.60;99.90;;;;;;5078424;28;20477;-74
2022/11/19 03:28:27;;;;;;;24.42;11.13;;;-1.70;99.90;;;;;;5079265;28;20031;-74
2022/11/19 03:30:56;;;;;;;26.67;11.27;;;-1.70;99.90;;;;;;5096732;28;20027;-74
2022/11/19 03:33:41;;;;;;;28.77;11.23;;;-1.70;99.90;;;;;;5078698;28;20088;-74
2022/11/19 03:36:17;;;;;;;23.40;10.63;;;-1.80;99.90;;;;;;5096677;28;20024;-74
2022/11/19 03:38:49;;;;;;;27.13;11.05;;;-1.80;99.90;;;;;;5096823;28;20250;-74
2022/11/19 03:41:19;;;;;;;24.33;10.18;;;-1.80;99.90;;;;;;5078632;28;20328;-74
2022/11/19 03:43:52;;;;;;;22.85;10.10;;;-1.80;99.90;;;;;;5096641;28;20434;-74
2022/11/19 03:46:21;;;;;;;24.98;10.50;;;-1.90;99.90;;;;;;5096764;28;20027;-74
2022/11/19 03:48:52;;;;;;;23.92;11.55;;;-1.90;99.90;;;;;;5096649;28;20297;-74
2022/11/19 03:51:28;;;;;;;26.20;10.80;;;-1.90;99.90;;;;;;5096818;28;20023;-74
2022/11/19 03:53:56;;;;;;;23.77;10.20;;;-2.00;99.90;;;;;;5096365;28;20467;-74
2022/11/19 03:56:27;;;;;;;23.45;11.38;;;-2.00;99.90;;;;;;5096749;28;20024;-74
2022/11/19 03:58:59;;;;;;;23.35;10.35;;;-2.10;99.90;;;;;;5096664;28;20094;-74
2022/11/19 04:01:26;;;;;;;25.13;12.30;;;-2.10;99.90;;;;;;5078516;28;20048;-74
2022/11/19 04:06:39;;;;;;;25.10;11.25;;;-2.20;99.90;;;;;;5096834;28;20036;-74
2022/11/19 04:09:06;;;;;;;25.10;11.55;;;-2.20;99.90;;;;;;5096698;28;20030;-74
2022/11/19 04:11:34;;;;;;;25.85;12.15;;;-2.20;99.90;;;;;;5096361;28;20095;-74
2022/11/19 04:14:01;;;;;;;22.23;10.63;;;-2.30;99.90;;;;;;5077100;28;20028;-74
2022/11/19 04:16:28;;;;;;;23.35;11.02;;;-2.30;99.90;;;;;;5096568;28;20020;-74
2022/11/19 04:18:55;;;;;;;25.98;11.55;;;-2.40;99.90;;;;;;5096407;28;20422;-74
2022/11/19 04:21:23;;;;;;;22.73;11.55;;;-2.40;99.90;;;;;;5096235;28;20305;-74
2022/11/19 04:23:50;;;;;;;26.45;11.00;;;-2.40;99.90;;;;;;5096789;28;20026;-74
2022/11/19 04:26:17;;;;;;;26.27;11.68;;;-2.40;99.90;;;;;;5096121;28;20092;-74
2022/11/19 04:28:44;;;;;;;26.33;11.65;;;-2.40;99.90;;;;;;5096371;28;20080;-74
2022/11/19 04:31:11;;;;;;;26.02;11.43;;;-2.50;99.90;;;;;;5078212;28;20031;-75
2022/11/19 04:33:39;;;;;;;26.70;10.80;;;-2.50;99.90;;;;;;5096086;28;20021;-74
2022/11/19 04:36:07;;;;;;;24.92;11.65;;;-2.50;99.90;;;;;;5096121;28;20506;-74
2022/11/19 04:38:34;;;;;;;24.25;11.55;;;-2.50;99.90;;;;;;5098717;28;20031;-74
2022/11/19 04:41:01;;;;;;;28.13;11.48;;;-2.50;99.90;;;;;;5081784;28;20028;-74
2022/11/19 04:43:28;;;;;;;30.27;13.00;;;-2.60;99.90;;;;;;5099923;28;20164;-74
2022/11/19 04:45:56;;;;;;;22.95;11.30;;;-2.60;99.90;;;;;;5081642;28;20024;-75
2022/11/19 04:48:23;;;;;;;27.92;11.50;;;-2.60;99.90;;;;;;5099619;28;20024;-75
2022/11/19 04:50:50;;;;;;;23.88;11.27;;;-2.60;99.90;;;;;;5081591;28;20020;-75
2022/11/19 04:53:18;;;;;;;24.65;11.77;;;-2.70;99.90;;;;;;5100085;28;20439;-74
2022/11/19 04:55:45;;;;;;;23.38;11.18;;;-2.70;99.90;;;;;;5077978;28;20052;-75
2022/11/19 04:58:12;;;;;;;26.25;10.90;;;-2.70;99.90;;;;;;5079533;28;20450;-75
2022/11/19 05:00:40;;;;;;;25.88;12.18;;;-2.70;99.90;;;;;;5079453;28;20059;-75
2022/11/19 05:03:07;;;;;;;25.92;10.25;;;-2.80;99.90;;;;;;5078187;28;20112;-74
2022/11/19 05:05:35;;;;;;;23.17;11.05;;;-2.80;99.90;;;;;;5078931;28;20028;-75
2022/11/19 05:08:02;;;;;;;22.88;9.93;;;-2.80;99.90;;;;;;5077978;28;20021;-75
2022/11/19 05:10:29;;;;;;;25.50;11.57;;;-2.80;99.90;;;;;;5079033;28;20025;-75
2022/11/19 05:12:57;;;;;;;27.40;11.38;;;-2.90;99.90;;;;;;5079095;28;20043;-75
2022/11/19 05:15:24;;;;;;;26.27;11.60;;;-2.90;99.90;;;;;;5077921;28;20055;-75
2022/11/19 05:17:52;;;;;;;24.27;10.75;;;-2.90;99.90;;;;;;5078842;28;20020;-74
2022/11/19 05:20:19;;;;;;;27.20;11.23;;;-2.90;99.90;;;;;;5079378;28;20016;-75
2022/11/19 05:22:47;;;;;;;23.83;11.38;;;-2.90;99.90;;;;;;5078965;28;20032;-75
2022/11/19 05:25:14;;;;;;;22.25;12.18;;;-3.00;99.90;;;;;;5077549;28;20070;-75
2022/11/19 05:27:41;;;;;;;23.98;10.05;;;-3.00;99.90;;;;;;5078699;28;20074;-75
2022/11/19 05:30:09;;;;;;;26.13;11.40;;;-3.00;99.90;;;;;;5078640;28;20043;-75
2022/11/19 05:32:37;;;;;;;24.58;10.52;;;-3.00;99.90;;;;;;5077864;28;20433;-74
2022/11/19 05:35:06;;;;;;;21.10;10.05;;;-3.00;99.90;;;;;;5078558;28;20403;-75
2022/11/19 05:37:33;;;;;;;23.23;10.27;;;-3.00;99.90;;;;;;5078540;28;20086;-75
2022/11/19 05:40:00;;;;;;;24.33;11.88;;;-3.00;99.90;;;;;;5077908;28;20115;-75
2022/11/19 05:42:27;;;;;;;25.98;11.52;;;-3.00;99.90;;;;;;5078573;28;20108;-74
2022/11/19 05:44:55;;;;;;;25.40;11.02;;;-3.00;99.90;;;;;;5077503;28;20371;-75
2022/11/19 05:47:22;;;;;;;22.52;10.15;;;-3.10;99.90;;;;;;5078376;28;20427;-74
2022/11/19 05:49:49;;;;;;;23.20;10.30;;;-3.10;99.90;;;;;;5077532;28;20075;-74
2022/11/19 05:52:16;;;;;;;21.02;9.50;;;-3.10;99.90;;;;;;5078730;28;20024;-75
2022/11/19 05:54:43;;;;;;;21.75;10.10;;;-3.10;99.90;;;;;;5087384;28;20051;-74
2022/11/19 05:57:11;;;;;;;22.88;10.63;;;-3.10;99.90;;;;;;5080430;28;20339;-75
2022/11/19 05:59:38;;;;;;;22.25;10.70;;;-3.10;99.90;;;;;;5080380;28;20032;-75
2022/11/19 06:02:05;;;;;;;24.80;11.05;;;-3.20;99.90;;;;;;5098588;28;20031;-75
2022/11/19 06:04:33;;;;;;;26.85;10.32;;;-3.20;99.90;;;;;;5097575;28;20107;-75
2022/11/19 06:07:00;;;;;;;28.17;11.77;;;-3.20;99.90;;;;;;5097025;28;20039;-75
2022/11/19 06:09:27;;;;;;;24.50;10.90;;;-3.30;99.90;;;;;;5080188;28;20016;-75
2022/11/19 06:11:55;;;;;;;25.15;11.40;;;-3.30;99.90;;;;;;5080115;28;20031;-75
2022/11/19 06:14:26;;;;;;;28.63;13.05;;;-3.40;99.90;;;;;;5099308;28;20110;-75
2022/11/19 06:16:56;;;;;;;25.77;12.40;;;-3.40;99.90;;;;;;5098204;28;20097;-75
2022/11/19 06:19:25;;;;;;;28.58;12.73;;;-3.50;99.90;;;;;;5079761;28;20051;-75
2022/11/19 06:21:53;;;;;;;28.08;12.63;;;-3.50;99.90;;;;;;5097905;28;20028;-75
2022/11/19 06:24:20;;;;;;;33.30;14.35;;;-3.60;99.90;;;;;;5097835;28;20031;-75
2022/11/19 06:26:48;;;;;;;31.13;14.57;;;-3.60;99.90;;;;;;5079839;28;20116;-75
2022/11/19 06:29:16;;;;;;;29.33;12.88;;;-3.70;99.90;;;;;;5098316;28;20016;-75
2022/11/19 06:31:44;;;;;;;24.40;11.63;;;-3.70;99.90;;;;;;5097702;28;20016;-75
2022/11/19 06:34:11;;;;;;;28.73;11.52;;;-3.70;99.90;;;;;;5097549;28;20024;-75
2022/11/19 06:36:39;;;;;;;24.98;11.52;;;-3.80;99.90;;;;;;5079844;28;20427;-75
2022/11/19 06:39:06;;;;;;;27.00;12.07;;;-3.80;99.90;;;;;;5097796;28;20016;-75
2022/11/19 06:41:33;;;;;;;26.17;11.18;;;-3.80;99.90;;;;;;5097501;28;20020;-75
2022/11/19 06:44:01;;;;;;;24.95;10.43;;;-3.80;99.90;;;;;;5098047;28;20024;-75
2022/11/19 06:46:28;;;;;;;26.42;11.82;;;-3.80;99.90;;;;;;5096267;28;20493;-75
2022/11/19 06:48:55;;;;;;;25.70;12.10;;;-3.80;99.90;;;;;;5097761;28;20028;-75
2022/11/19 06:51:23;;;;;;;28.90;12.45;;;-3.80;99.90;;;;;;5097559;28;20016;-75
2022/11/19 06:53:50;;;;;;;30.52;14.02;;;-3.80;99.90;;;;;;5079127;28;20317;-75
2022/11/19 06:56:18;;;;;;;23.60;11.52;;;-3.80;99.90;;;;;;5097480;28;20416;-75
2022/11/19 06:58:45;;;;;;;24.77;11.25;;;-3.90;99.90;;;;;;5079402;28;20024;-75
2022/11/19 07:01:16;;;;;;;22.42;10.45;;;-3.90;99.90;;;;;;5096915;28;20419;-75
2022/11/19 07:03:43;;;;;;;27.85;12.10;;;-3.90;99.90;;;;;;5097007;28;20028;-75
2022/11/19 07:06:10;;;;;;;23.98;10.90;;;-3.80;99.90;;;;;;5096973;28;20074;-75
2022/11/19 07:08:38;;;;;;;27.23;13.05;;;-3.80;99.90;;;;;;5097346;28;20116;-74
2022/11/19 07:13:58;;;;;;;23.15;10.15;;;-3.80;99.90;;;;;;5097356;28;20073;-77
2022/11/19 07:16:34;;;;;;;29.45;10.70;;;-3.80;99.90;;;;;;5097053;28;20328;-75
2022/11/19 07:19:04;;;;;;;26.05;10.77;;;-3.80;99.90;;;;;;5096858;28;20100;-74
2022/11/19 07:21:32;;;;;;;27.40;9.75;;;-3.80;99.90;;;;;;5078892;28;20062;-73
2022/11/19 07:24:01;;;;;;;20.92;9.68;;;-3.80;99.90;;;;;;5097444;28;20020;-73
2022/11/19 07:26:29;;;;;;;21.45;9.55;;;-3.70;99.90;;;;;;5097000;28;20319;-73
2022/11/19 07:28:58;;;;;;;20.25;9.32;;;-3.60;99.90;;;;;;5097374;28;20051;-73
2022/11/19 07:31:26;;;;;;;21.40;9.98;;;-3.60;99.90;;;;;;5096767;28;20023;-72
2022/11/19 07:33:53;;;;;;;27.40;10.10;;;-3.60;99.90;;;;;;5096861;28;20020;-78
2022/11/19 07:36:21;;;;;;;24.27;12.18;;;-3.60;99.90;;;;;;5096935;28;20032;-77
2022/11/19 07:38:51;;;;;;;18.25;9.00;;;-3.50;99.90;;;;;;5096636;28;20077;-73
2022/11/19 07:44:05;;;;;;;22.42;10.05;;;-3.50;99.90;;;;;;5096932;28;20031;-77
2022/11/19 07:46:33;;;;;;;21.70;9.85;;;-3.50;99.90;;;;;;5096754;28;20115;-77
2022/11/19 07:49:01;;;;;;;19.52;9.15;;;-3.40;99.90;;;;;;5096478;28;20074;-75
2022/11/19 07:51:28;;;;;;;16.15;8.50;;;-3.40;99.90;;;;;;5096560;28;20024;-75
2022/11/19 07:53:55;;;;;;;16.20;8.05;;;-3.30;99.90;;;;;;5097040;28;20020;-74
2022/11/19 07:56:23;;;;;;;21.70;8.57;;;-3.30;99.90;;;;;;5096505;28;20107;-75
2022/11/19 07:58:50;;;;;;;17.25;8.07;;;-3.20;99.90;;;;;;5096502;28;20035;-72
2022/11/19 08:01:23;;;;;;;19.25;8.45;;;-3.20;99.90;;;;;;5097067;28;20395;-70
2022/11/19 08:03:51;;;;;;;17.83;7.38;;;-3.10;99.90;;;;;;5078614;28;20081;-71
2022/11/19 08:06:20;;;;;;;14.63;7.45;;;-3.10;99.90;;;;;;5096346;28;20035;-70
2022/11/19 08:08:47;;;;;;;17.10;7.90;;;-3.00;99.90;;;;;;5096991;28;20089;-70
2022/11/19 08:11:15;;;;;;;15.38;7.28;;;-2.90;99.90;;;;;;5096933;28;20048;-69
2022/11/19 08:13:43;;;;;;;19.98;7.82;;;-2.80;99.90;;;;;;5100130;28;20020;-70
2022/11/19 08:19:08;;;;;;;19.00;8.77;;;-2.70;99.90;;;;;;5100331;28;20078;-71
2022/11/19 08:21:39;;;;;;;18.98;9.10;;;-2.60;99.90;;;;;;5100217;28;20017;-71
2022/11/19 08:24:08;;;;;;;15.52;7.90;;;-2.50;99.90;;;;;;5100716;28;20431;-71
2022/11/19 08:26:37;;;;;;;15.80;6.97;;;-2.50;99.90;;;;;;5100173;28;20024;-70
2022/11/19 08:29:05;;;;;;;14.25;6.47;;;-2.40;99.90;;;;;;5100336;28;20016;-70
2022/11/19 08:31:32;;;;;;;16.08;7.25;;;-2.40;99.90;;;;;;5100008;28;20016;-69
2022/11/19 08:34:01;;;;;;;14.55;7.13;;;-2.30;99.90;;;;;;5099923;28;20027;-69
2022/11/19 08:36:29;;;;;;;13.23;7.15;;;-2.30;99.90;;;;;;5081911;28;20028;-69
2022/11/19 08:39:01;;;;;;;14.40;6.45;;;-2.30;99.90;;;;;;5082872;28;20073;-70
2022/11/19 08:44:14;;;;;;;14.15;5.97;;;-2.30;99.90;;;;;;5099808;28;20073;-71
2022/11/19 08:46:42;;;;;;;11.82;6.18;;;-2.30;99.90;;;;;;5100407;28;20480;-70
2022/11/19 08:49:10;;;;;;;12.55;6.68;;;-2.30;99.90;;;;;;5099624;28;20397;-69
2022/11/19 08:51:38;;;;;;;12.75;7.00;;;-2.30;99.90;;;;;;5099699;28;20043;-70
2022/11/19 08:54:05;;;;;;;15.57;6.80;;;-2.40;99.90;;;;;;5099298;28;20044;-69
2022/11/19 08:56:33;;;;;;;18.52;7.97;;;-2.40;99.90;;;;;;5100076;28;20016;-69
2022/11/19 08:59:00;;;;;;;13.48;6.75;;;-2.40;99.90;;;;;;5099956;28;20024;-69
2022/11/19 09:01:28;;;;;;;12.23;7.38;;;-2.40;99.90;;;;;;5099992;28;20030;-70
2022/11/19 09:03:55;;;;;;;19.65;6.60;;;-2.40;99.90;;;;;;5099998;28;20412;-70
2022/11/19 09:06:23;;;;;;;20.83;6.93;;;-2.40;99.90;;;;;;5099297;28;20064;-73
2022/11/19 09:08:50;;;;;;;12.55;6.50;;;-2.30;99.90;;;;;;5099492;28;20028;-72
2022/11/19 09:11:20;;;;;;;15.98;6.07;;;-2.30;99.90;;;;;;5081281;28;20069;-72
2022/11/19 09:13:48;;;;;;;9.90;5.68;;;-2.30;99.90;;;;;;5099250;28;20094;-75
2022/11/19 09:16:15;;;;;;;12.20;5.90;;;-2.30;99.90;;;;;;5099442;28;20059;-68
2022/11/19 09:18:43;;;;;;;14.50;5.97;;;-2.30;99.90;;;;;;5099356;28;20042;-72
2022/11/19 09:21:11;;;;;;;13.38;6.72;;;-2.20;99.90;;;;;;5099414;28;20103;-71
2022/11/19 09:23:41;;;;;;;19.63;7.50;;;-2.20;99.90;;;;;;5081124;28;20110;-72
2022/11/19 09:26:14;;;;;;;16.83;6.03;;;-2.20;99.90;;;;;;5098812;28;20024;-71
2022/11/19 09:28:43;;;;;;;15.40;6.13;;;-2.20;99.90;;;;;;5099416;28;20035;-71
2022/11/19 09:31:16;;;;;;;15.02;6.35;;;-2.20;99.90;;;;;;5098938;28;20019;-71
2022/11/19 09:33:47;;;;;;;10.80;6.07;;;-2.20;99.90;;;;;;5098829;28;20016;-74
2022/11/19 09:36:17;;;;;;;12.10;6.20;;;-2.10;99.90;;;;;;5099350;28;20078;-74
2022/11/19 09:38:45;;;;;;;12.55;5.32;;;-2.10;99.90;;;;;;5098915;28;20380;-72
2022/11/19 09:41:30;;;;;;;11.32;5.32;;;-2.10;99.90;;;;;;5098975;28;20024;-73
2022/11/19 09:44:16;;;;;;;11.63;5.97;;;-2.10;99.90;;;;;;5098974;28;20095;-75
2022/11/19 09:47:14;;;;;;;11.18;4.93;;;-2.00;99.90;;;;;;5098748;28;20032;-74
2022/11/19 09:49:42;;;;;;;15.43;6.45;;;-2.00;99.90;;;;;;5098404;28;20077;-74
2022/11/19 09:52:20;;;;;;;14.07;6.05;;;-2.00;99.90;;;;;;5098806;28;20028;-75
2022/11/19 09:54:56;;;;;;;14.43;6.53;;;-1.90;99.90;;;;;;5098416;28;20036;-74
2022/11/19 09:57:44;;;;;;;13.13;6.60;;;-1.90;99.90;;;;;;5099172;28;20111;-75
2022/11/19 10:00:22;;;;;;;15.23;6.63;;;-1.90;99.90;;;;;;5098575;28;20077;-75
2022/11/19 10:02:52;;;;;;;16.55;6.82;;;-1.80;99.90;;;;;;5098249;28;20073;-76
2022/11/19 10:05:45;;;;;;;17.83;5.65;;;-1.80;99.90;;;;;;5098239;28;20412;-75
2022/11/19 10:08:19;;;;;;;12.85;5.75;;;-1.70;99.90;;;;;;5098674;28;20039;-73
2022/11/19 10:10:54;;;;;;;11.00;5.78;;;-1.60;99.90;;;;;;5098695;28;20017;-75
2022/11/19 10:13:49;;;;;;;9.88;5.55;;;-1.60;99.90;;;;;;5098381;28;20098;-74
2022/11/19 10:17:03;;;;;;;16.10;5.70;;;-1.60;99.90;;;;;;5098297;28;20404;-74
2022/11/19 10:19:58;;;;;;;14.02;6.15;;;-1.50;99.90;;;;;;5071005;28;20459;-71
2022/11/19 10:22:45;;;;;;;12.80;5.72;;;-1.50;99.90;;;;;;5098240;28;20028;-71
2022/11/19 10:25:20;;;;;;;9.98;5.57;;;-1.40;99.90;;;;;;5097738;28;20031;-71
2022/11/19 10:27:53;;;;;;;10.90;5.47;;;-1.40;99.90;;;;;;5098157;28;20028;-72
2022/11/19 10:30:26;;;;;;;11.68;5.95;;;-1.30;99.90;;;;;;5097911;28;20321;-71
2022/11/19 10:33:02;;;;;;;12.30;5.10;;;-1.30;99.90;;;;;;5098204;28;20012;-70
2022/11/19 10:35:38;;;;;;;;;;;-1.20;99.90;;;;;;5079541;28;20024;-71
2022/11/19 10:38:21;;;;;;;12.32;4.75;;;-1.20;99.90;;;;;;5079523;28;20314;-72
2022/11/19 10:41:10;;;;;;;12.45;6.07;;;-1.10;99.90;;;;;;5097549;28;20051;-71
2022/11/19 10:43:47;;;;;;;10.70;5.38;;;-1.10;99.90;;;;;;5097635;28;20059;-71
2022/11/19 10:46:23;;;;;;;12.40;5.70;;;-1.10;99.90;;;;;;5097269;28;20031;-71
2022/11/19 10:49:10;;;;;;;10.85;5.43;;;-1.10;99.90;;;;;;5097411;28;20023;-71
2022/11/19 10:51:41;;;;;;;9.80;5.45;;;-1.00;99.90;;;;;;5097570;28;20077;-71
2022/11/19 10:54:26;;;;;;;13.93;6.93;;;-1.00;99.90;;;;;;5097632;28;20044;-71
2022/11/19 10:56:56;;;;;;;14.80;6.63;;;-0.90;99.90;;;;;;5097906;28;20024;-71
2022/11/19 10:59:31;;;;;;;11.75;5.93;;;-0.90;99.90;;;;;;5097207;28;20031;-71
2022/11/19 11:02:17;;;;;;;10.68;5.68;;;-0.90;99.90;;;;;;5097420;28;20032;-71
2022/11/19 11:05:06;;;;;;;7.47;4.57;;;-0.90;99.90;;;;;;5097724;28;20092;-71
2022/11/19 11:07:55;;;;;;;10.65;5.35;;;-0.90;99.90;;;;;;5079086;28;20040;-71
2022/11/19 11:10:55;;;;;;;13.70;5.05;;;-0.90;99.90;;;;;;5079078;28;20024;-71
2022/11/19 11:16:44;;;;;;;9.35;4.72;;;-0.80;99.90;;;;;;5097542;28;20031;-71
2022/11/19 11:19:20;;;;;;;9.40;5.07;;;-0.80;99.90;;;;;;5097187;28;20023;-71
2022/11/19 11:21:53;;;;;;;10.70;5.20;;;-0.80;99.90;;;;;;5097107;28;20024;-71
2022/11/19 11:24:30;;;;;;;9.48;5.03;;;-0.80;99.90;;;;;;5097480;28;20365;-71
2022/11/19 11:27:33;;;;;;;9.70;4.93;;;-0.70;99.90;;;;;;5096845;28;20028;-71
2022/11/19 11:30:16;;;;;;;12.05;5.20;;;-0.70;99.90;;;;;;5097066;28;20016;-71
2022/11/19 11:32:43;;;;;;;12.07;5.07;;;-0.60;99.90;;;;;;5096877;28;20027;-71
2022/11/19 11:35:37;;;;;;;10.18;4.90;;;-0.60;99.90;;;;;;5078816;28;20419;-71
2022/11/19 11:38:05;;;;;;;9.82;5.05;;;-0.60;99.90;;;;;;5097305;28;20027;-71
2022/11/19 11:40:32;;;;;;;9.25;5.20;;;-0.50;99.90;;;;;;5078710;28;20028;-71
2022/11/19 11:42:59;;;;;;;8.68;4.72;;;-0.50;99.90;;;;;;5097232;28;20099;-71
2022/11/19 11:45:35;;;;;;;11.10;5.13;;;-0.50;99.90;;;;;;5096676;28;20047;-71
2022/11/19 11:48:15;;;;;;;10.68;4.68;;;-0.50;99.90;;;;;;5080637;28;20324;-71
2022/11/19 11:50:46;;;;;;;9.23;4.75;;;-0.40;99.90;;;;;;5101410;28;20031;-71
2022/11/19 11:53:27;;;;;;;8.85;4.63;;;-0.40;99.90;;;;;;5100752;28;20416;-71
2022/11/19 11:55:59;;;;;;;8.32;4.28;;;-0.40;99.90;;;;;;5079196;28;20118;-71
2022/11/19 11:58:32;;;;;;;10.07;5.35;;;-0.30;99.90;;;;;;5081214;28;20447;-71
2022/11/19 12:01:19;;;;;;;8.98;4.43;;;-0.30;99.90;;;;;;5080406;28;20078;-71
2022/11/19 12:03:56;;;;;;;7.03;3.95;;;-0.30;99.90;;;;;;5080339;28;20044;-71
2022/11/19 12:06:39;;;;;;;10.32;4.30;;;-0.30;99.90;;;;;;5080458;28;20021;-71
2022/11/19 12:09:39;;;;;;;7.53;3.83;;;-0.20;99.90;;;;;;5080174;28;20028;-72
2022/11/19 12:12:30;;;;;;;6.78;3.38;;;-0.20;99.90;;;;;;5053340;28;20036;-72
2022/11/19 12:15:08;;;;;;;7.00;3.58;;;-0.10;99.90;;;;;;5080119;28;20027;-72
2022/11/19 12:17:36;;;;;;;6.22;3.45;;;-0.10;99.90;;;;;;5080749;28;20031;-72
2022/11/19 12:20:40;;;;;;;8.07;3.80;;;0.00;99.90;;;;;;5080570;28;20021;-72
2022/11/19 12:23:25;;;;;;;6.68;3.38;;;0.00;99.90;;;;;;5080559;28;20032;-72
2022/11/19 12:26:03;;;;;;;7.18;3.78;;;0.10;99.90;;;;;;5080372;28;20044;-72
2022/11/19 12:29:02;;;;;;;6.00;3.25;;;0.10;99.90;;;;;;5080024;28;20024;-72
2022/11/19 12:31:55;;;;;;;9.23;4.00;;;0.10;99.90;;;;;;5078725;28;20071;-72
2022/11/19 12:34:55;;;;;;;8.45;4.40;;;0.20;99.90;;;;;;5079780;28;20031;-71
2022/11/19 12:37:45;;;;;;;7.18;3.40;;;0.20;99.90;;;;;;5080765;28;20024;-72
2022/11/19 12:40:44;;;;;;;7.07;3.92;;;0.20;99.90;;;;;;5078537;28;20328;-71
2022/11/19 12:43:20;;;;;;;8.32;4.43;;;0.20;99.90;;;;;;5080142;28;20028;-71
2022/11/19 12:46:09;;;;;;;9.60;3.80;;;0.20;99.90;;;;;;5079995;28;20416;-72
2022/11/19 12:48:51;;;;;;;7.22;3.65;;;0.30;99.90;;;;;;5079865;28;20294;-72
2022/11/19 12:51:44;;;;;;;7.57;3.95;;;0.30;99.90;;;;;;5079965;28;20405;-72
2022/11/19 12:54:33;;;;;;;7.28;3.88;;;0.30;99.90;;;;;;5082794;28;20092;-72
2022/11/19 12:57:24;;;;;;;8.15;4.22;;;0.30;99.90;;;;;;5100180;28;20020;-71
2022/11/19 13:00:09;;;;;;;7.75;3.85;;;0.30;99.90;;;;;;5098092;28;20031;-72
2022/11/19 13:03:20;;;;;;;10.32;5.15;;;0.30;99.90;;;;;;5099912;28;20024;-72
2022/11/19 13:06:08;;;;;;;11.07;4.45;;;0.30;99.90;;;;;;5056210;28;20040;-71
2022/11/19 13:08:56;;;;;;;7.43;3.95;;;0.30;99.90;;;;;;5081407;28;20055;-71
2022/11/19 13:11:35;;;;;;;9.63;4.18;;;0.40;99.90;;;;;;5099353;28;20017;-72
2022/11/19 13:14:34;;;;;;;6.43;4.00;;;0.40;99.90;;;;;;5099562;28;20027;-72
2022/11/19 13:17:05;;;;;;;6.93;3.75;;;0.40;99.90;;;;;;5081293;28;20435;-72
2022/11/19 13:19:38;;;;;;;6.22;3.70;;;0.40;99.90;;;;;;5098991;28;20020;-70
2022/11/19 13:22:17;;;;;;;8.68;3.90;;;0.40;99.90;;;;;;5099319;28;20099;-72
2022/11/19 13:25:17;;;;;;;9.40;4.47;;;0.50;99.90;;;;;;5099065;28;20051;-72
2022/11/19 13:27:50;;;;;;;8.00;4.00;;;0.50;99.90;;;;;;5080990;28;20024;-72
2022/11/19 13:30:25;;;;;;;8.30;4.95;;;0.50;99.90;;;;;;5098964;28;20061;-72
2022/11/19 13:33:09;;;;;;;13.35;6.10;;;0.50;99.90;;;;;;5098960;28;20023;-71
2022/11/19 13:36:07;;;;;;;11.73;4.60;;;0.50;99.90;;;;;;5098856;28;20039;-71